Time;durP1;ratioP1;P1;durP2;ratioP2;P2;SDS_P1;SDS_P2;PMS_P1;PMS_P2;Temp;Humidity;BMP_temperature;BMP_pressure;BME280_temperature;BME280_humidity;BME280_pressure;Samples;Min_cycle;Max_cycle;Signal;HPM_P1;HPM_P2
2022/08/27 00:02:16;;;;;;;6.75;5.45;;;;;;;19.49;63.68;94536.53;5097928;28;20208;-68
2022/08/27 00:04:43;;;;;;;8.68;5.32;;;;;;;19.46;63.85;94534.59;5098502;28;20561;-68
2022/08/27 00:07:11;;;;;;;7.97;5.22;;;;;;;19.40;63.77;94541.88;5097160;28;20627;-68
2022/08/27 00:09:38;;;;;;;9.40;5.43;;;;;;;19.36;63.67;94539.16;5097279;28;20261;-68
2022/08/27 00:12:07;;;;;;;9.05;5.47;;;;;;;19.33;64.03;94534.41;5098162;28;20207;-68
2022/08/27 00:14:35;;;;;;;5.68;5.18;;;;;;;19.34;63.72;94533.16;5098524;28;20242;-68
2022/08/27 00:17:04;;;;;;;6.97;5.18;;;;;;;19.34;64.32;94527.56;5098023;28;20211;-68
2022/08/27 00:19:34;;;;;;;9.50;5.28;;;;;;;19.33;64.55;94528.81;5097474;28;20200;-68
2022/08/27 00:22:01;;;;;;;7.50;5.15;;;;;;;19.29;64.56;94528.06;5096969;28;20561;-68
2022/08/27 00:24:30;;;;;;;5.47;4.78;;;;;;;19.26;64.41;94526.13;5097059;28;20205;-68
2022/08/27 00:26:57;;;;;;;6.50;4.70;;;;;;;19.24;64.33;94529.34;5097803;28;20204;-68
2022/08/27 00:29:26;;;;;;;7.20;4.55;;;;;;;19.21;64.26;94521.78;5097215;28;20212;-68
2022/08/27 00:31:55;;;;;;;6.78;5.00;;;;;;;19.20;64.50;94516.59;5097146;28;20246;-68
2022/08/27 00:34:23;;;;;;;6.80;4.70;;;;;;;19.20;64.71;94519.41;5097746;28;20206;-68
2022/08/27 00:36:51;;;;;;;7.15;5.10;;;;;;;19.15;64.58;94517.88;5098017;28;20196;-68
2022/08/27 00:39:19;;;;;;;6.47;4.90;;;;;;;19.10;64.35;94523.97;5097145;28;20272;-68
2022/08/27 00:41:47;;;;;;;8.40;5.22;;;;;;;19.09;64.46;94525.16;5096837;28;20275;-68
2022/08/27 00:44:14;;;;;;;9.38;5.30;;;;;;;19.08;64.76;94534.75;5096791;28;20253;-68
2022/08/27 00:46:44;;;;;;;6.70;5.45;;;;;;;19.08;64.69;94525.59;5097543;28;20188;-68
2022/08/27 00:49:14;;;;;;;7.20;4.90;;;;;;;19.07;64.91;94529.59;5097479;28;20292;-68
2022/08/27 00:51:43;;;;;;;8.80;5.20;;;;;;;19.06;64.80;94528.78;5096674;28;20664;-68
2022/08/27 00:54:12;;;;;;;6.82;5.20;;;;;;;19.03;64.82;94526.03;5097477;28;20191;-68
2022/08/27 00:56:43;;;;;;;7.07;5.32;;;;;;;19.04;64.95;94530.44;5097746;28;20204;-68
2022/08/27 00:59:13;;;;;;;7.82;5.10;;;;;;;19.02;65.05;94525.25;5097849;28;20200;-68
2022/08/27 01:04:27;;;;;;;7.15;5.55;;;;;;;18.98;64.94;94521.72;5095275;28;20192;-68
2022/08/27 01:06:54;;;;;;;6.20;4.93;;;;;;;18.97;65.02;94522.94;5096958;28;20200;-68
2022/08/27 01:09:21;;;;;;;7.80;5.10;;;;;;;18.96;65.29;94527.75;5096522;28;20200;-68
2022/08/27 01:11:48;;;;;;;7.22;5.28;;;;;;;18.95;65.23;94528.97;5096190;28;20189;-68
2022/08/27 01:14:15;;;;;;;5.60;4.95;;;;;;;18.95;65.53;94526.16;5097060;28;20195;-68
2022/08/27 01:16:46;;;;;;;5.80;4.88;;;;;;;18.95;65.47;94525.34;5097163;28;20185;-68
2022/08/27 01:19:23;;;;;;;6.50;5.13;;;;;;;18.94;65.69;94520.97;5096804;28;20204;-68
2022/08/27 01:21:57;;;;;;;7.55;5.00;;;;;;;18.90;65.67;94518.22;5096635;28;20261;-68
2022/08/27 01:24:36;;;;;;;7.20;4.72;;;;;;;18.89;65.76;94518.66;5097142;28;20188;-68
2022/08/27 01:27:04;;;;;;;7.13;5.13;;;;;;;18.87;65.83;94523.88;5097027;28;20188;-68
2022/08/27 01:29:33;;;;;;;8.27;4.93;;;;;;;18.85;65.55;94520.72;5096099;28;20215;-68
2022/08/27 01:32:06;;;;;;;6.07;5.22;;;;;;;18.80;65.64;94524.75;5095636;28;20196;-68
2022/08/27 01:34:33;;;;;;;9.05;5.30;;;;;;;18.76;65.33;94524.00;5096186;28;20216;-68
2022/08/27 01:37:03;;;;;;;7.72;5.40;;;;;;;18.74;65.63;94518.84;5097047;28;20184;-68
2022/08/27 01:39:29;;;;;;;6.38;5.25;;;;;;;18.73;65.51;94519.25;5096360;28;20193;-68
2022/08/27 01:42:04;;;;;;;10.35;5.47;;;;;;;18.72;65.80;94531.66;5095856;28;20192;-68
2022/08/27 01:44:42;;;;;;;7.45;5.43;;;;;;;18.72;65.68;94528.84;5096186;28;20227;-68
2022/08/27 01:47:09;;;;;;;7.00;5.15;;;;;;;18.69;65.95;94518.47;5096579;28;20188;-68
2022/08/27 01:49:36;;;;;;;6.88;5.05;;;;;;;18.67;66.00;94541.25;5096561;28;20590;-68
2022/08/27 01:52:04;;;;;;;7.13;5.47;;;;;;;18.67;65.90;94538.47;5095170;28;20228;-68
2022/08/27 01:54:31;;;;;;;7.85;6.15;;;;;;;18.67;65.91;94540.47;5096637;28;20188;-68
2022/08/27 01:56:59;;;;;;;6.30;5.13;;;;;;;18.66;65.91;94533.28;5095391;28;20211;-68
2022/08/27 01:59:28;;;;;;;9.23;6.32;;;;;;;18.65;66.18;94540.09;5096661;28;20222;-68
2022/08/27 02:01:55;;;;;;;9.25;5.43;;;;;;;18.63;65.87;94534.13;5095249;28;20281;-68
2022/08/27 02:04:22;;;;;;;6.80;4.90;;;;;;;18.60;65.88;94532.97;5095312;28;20200;-68
2022/08/27 02:06:49;;;;;;;7.78;5.20;;;;;;;18.58;65.65;94532.56;5095406;28;20211;-68
2022/08/27 02:09:15;;;;;;;5.75;5.25;;;;;;;18.55;65.57;94541.78;5095907;28;20195;-68
2022/08/27 02:11:42;;;;;;;8.43;5.45;;;;;;;18.50;65.56;94542.25;5094885;28;20223;-69
2022/08/27 02:14:11;;;;;;;6.97;5.20;;;;;;;18.47;65.63;94545.88;5094985;28;20196;-68
2022/08/27 02:16:42;;;;;;;8.23;5.43;;;;;;;18.45;66.36;94545.50;5095961;28;20184;-68
2022/08/27 02:19:09;;;;;;;7.43;5.30;;;;;;;18.48;66.12;94539.91;5096026;28;20184;-68
2022/08/27 02:21:35;;;;;;;9.80;5.90;;;;;;;18.48;66.13;94547.44;5095898;28;20192;-68
2022/08/27 02:24:03;;;;;;;7.22;4.75;;;;;;;18.48;66.31;94542.69;5095659;28;20192;-68
2022/08/27 02:26:31;;;;;;;5.68;4.90;;;;;;;18.44;66.24;94550.28;5096078;28;20214;-68
2022/08/27 02:28:58;;;;;;;7.90;5.38;;;;;;;18.40;66.33;94541.16;5094864;28;20192;-68
2022/08/27 02:31:25;;;;;;;8.38;5.47;;;;;;;18.37;66.14;94536.41;5094528;28;20216;-68
2022/08/27 02:33:53;;;;;;;9.48;5.30;;;;;;;18.34;66.24;94545.63;5094530;28;20192;-68
2022/08/27 02:36:20;;;;;;;9.27;6.40;;;;;;;18.29;65.86;94549.66;5095476;28;20257;-68
2022/08/27 02:38:47;;;;;;;8.82;5.45;;;;;;;18.27;66.07;94543.72;5095152;28;20537;-68
2022/08/27 02:41:17;;;;;;;7.65;5.00;;;;;;;18.25;66.04;94551.69;5095132;28;20177;-68
2022/08/27 02:43:44;;;;;;;8.20;5.35;;;;;;;18.21;66.10;94555.75;5095179;28;20609;-68
2022/08/27 02:46:13;;;;;;;8.02;5.22;;;;;;;18.16;65.98;94562.56;5094445;28;20196;-68
2022/08/27 02:48:40;;;;;;;10.60;5.28;;;;;;;18.14;66.30;94567.75;5095354;28;20181;-68
2022/08/27 02:51:12;;;;;;;7.13;5.20;;;;;;;18.13;66.22;94560.59;5093757;28;20243;-68
2022/08/27 02:53:39;;;;;;;5.38;4.60;;;;;;;18.14;66.56;94561.38;5094659;28;20309;-68
2022/08/27 02:56:08;;;;;;;6.03;5.28;;;;;;;18.10;66.29;94555.06;5095316;28;20185;-68
2022/08/27 02:58:37;;;;;;;8.18;5.40;;;;;;;18.08;66.51;94552.66;5095405;28;20200;-68
2022/08/27 03:01:05;;;;;;;9.13;4.90;;;;;;;18.09;66.48;94565.44;5095215;28;20233;-68
2022/08/27 03:03:32;;;;;;;7.85;4.90;;;;;;;18.07;66.33;94572.63;5094575;28;20207;-68
2022/08/27 03:05:59;;;;;;;7.78;5.07;;;;;;;18.06;66.48;94568.25;5094308;28;20194;-68
2022/08/27 03:08:30;;;;;;;7.82;4.97;;;;;;;18.05;66.43;94567.47;5095201;28;20259;-68
2022/08/27 03:10:57;;;;;;;8.95;4.82;;;;;;;18.04;66.56;94568.66;5095099;28;20208;-68
2022/08/27 03:13:25;;;;;;;7.93;5.40;;;;;;;17.99;66.46;94575.47;5094837;28;20185;-68
2022/08/27 03:15:52;;;;;;;7.78;5.18;;;;;;;17.99;66.47;94563.53;5094121;28;20250;-68
2022/08/27 03:18:20;;;;;;;10.50;5.88;;;;;;;17.94;66.16;94572.34;5095145;28;20185;-68
2022/08/27 03:20:49;;;;;;;7.13;5.20;;;;;;;17.91;66.62;94573.19;5094268;28;20192;-68
2022/08/27 03:23:17;;;;;;;8.40;5.85;;;;;;;17.90;66.68;94574.34;5093850;28;20191;-68
2022/08/27 03:25:51;;;;;;;7.05;4.88;;;;;;;17.89;66.78;94573.56;5094973;28;20218;-68
2022/08/27 03:28:18;;;;;;;7.97;5.32;;;;;;;17.88;66.90;94574.78;5094771;28;20202;-68
2022/08/27 03:30:50;;;;;;;8.15;5.07;;;;;;;17.88;66.72;94571.19;5094167;28;20223;-68
2022/08/27 03:33:18;;;;;;;9.77;5.57;;;;;;;17.87;66.82;94572.41;5094070;28;20193;-68
2022/08/27 03:35:45;;;;;;;10.18;5.30;;;;;;;17.88;67.21;94574.78;5094041;28;20200;-68
2022/08/27 03:38:12;;;;;;;8.07;4.78;;;;;;;17.85;66.95;94585.97;5095092;28;20275;-68
2022/08/27 03:40:39;;;;;;;6.40;5.35;;;;;;;17.84;67.16;94590.75;5094122;28;20197;-68
2022/08/27 03:43:10;;;;;;;11.38;5.72;;;;;;;17.79;67.06;94588.41;5094560;28;20597;-68
2022/08/27 03:45:38;;;;;;;7.68;5.45;;;;;;;17.74;66.70;94589.59;5094891;28;20211;-68
2022/08/27 03:48:06;;;;;;;7.57;5.30;;;;;;;17.73;66.82;94585.25;5094506;28;20222;-68
2022/08/27 03:50:33;;;;;;;8.18;5.63;;;;;;;17.72;67.19;94586.44;5094505;28;20223;-68
2022/08/27 03:53:01;;;;;;;7.72;5.57;;;;;;;17.70;67.15;94583.25;5096231;28;20185;-68
2022/08/27 03:55:28;;;;;;;7.97;5.28;;;;;;;17.68;67.36;94587.66;5098602;28;20195;-68
2022/08/27 03:57:55;;;;;;;7.82;5.80;;;;;;;17.67;67.21;94583.28;5097453;28;20215;-68
2022/08/27 04:00:25;;;;;;;7.85;5.30;;;;;;;17.68;67.49;94590.44;5097681;28;20212;-68
2022/08/27 04:02:53;;;;;;;11.25;6.10;;;;;;;17.64;67.46;94587.69;5098354;28;20184;-68
2022/08/27 04:05:22;;;;;;;10.57;6.03;;;;;;;17.66;67.54;94595.66;5098496;28;20188;-68
2022/08/27 04:07:49;;;;;;;8.18;5.53;;;;;;;17.69;67.57;94595.63;5098026;28;20196;-68
2022/08/27 04:10:17;;;;;;;9.73;5.60;;;;;;;17.71;67.74;94600.78;5097850;28;20188;-68
2022/08/27 04:12:45;;;;;;;10.73;5.82;;;;;;;17.69;67.83;94603.22;5098335;28;20627;-68
2022/08/27 04:15:15;;;;;;;8.00;5.95;;;;;;;17.64;67.74;94601.63;5098295;28;20181;-68
2022/08/27 04:17:44;;;;;;;9.75;5.47;;;;;;;17.63;67.40;94600.06;5098183;28;20184;-68
2022/08/27 04:20:12;;;;;;;6.72;5.60;;;;;;;17.65;67.46;94596.88;5097203;28;20601;-68
2022/08/27 04:22:39;;;;;;;11.73;6.15;;;;;;;17.66;67.53;94612.38;5097601;28;20200;-68
2022/08/27 04:25:07;;;;;;;9.25;6.03;;;;;;;17.65;67.80;94602.44;5098226;28;20261;-68
2022/08/27 04:27:34;;;;;;;7.68;6.00;;;;;;;17.63;67.68;94607.63;5097270;28;20303;-68
2022/08/27 04:30:02;;;;;;;8.95;5.93;;;;;;;17.64;68.32;94612.00;5097855;28;20199;-68
2022/08/27 04:32:29;;;;;;;8.70;5.70;;;;;;;17.66;68.26;94606.81;5096844;28;20220;-68
2022/08/27 04:34:59;;;;;;;9.02;5.70;;;;;;;17.71;68.52;94609.16;5098028;28;20177;-68
2022/08/27 04:37:30;;;;;;;8.02;6.07;;;;;;;17.73;68.28;94607.56;5096843;28;20207;-68
2022/08/27 04:39:59;;;;;;;13.18;6.43;;;;;;;17.74;68.19;94611.13;5096340;28;20203;-68
2022/08/27 04:42:27;;;;;;;11.52;5.97;;;;;;;17.75;68.67;94604.34;5096857;28;20526;-68
2022/08/27 04:44:55;;;;;;;14.07;6.30;;;;;;;17.77;68.83;94611.13;5097216;28;20197;-68
2022/08/27 04:47:22;;;;;;;9.65;5.80;;;;;;;17.78;68.28;94607.13;5096931;28;20203;-68
2022/08/27 04:49:48;;;;;;;10.07;5.70;;;;;;;17.83;68.35;94614.28;5096764;28;20188;-68
2022/08/27 04:52:16;;;;;;;12.10;6.50;;;;;;;17.85;68.29;94613.88;5096471;28;20232;-68
2022/08/27 04:54:43;;;;;;;11.85;6.00;;;;;;;17.86;68.39;94616.22;5096522;28;20208;-69
2022/08/27 04:57:11;;;;;;;11.40;6.07;;;;;;;17.88;68.39;94613.84;5096609;28;20287;-69
2022/08/27 04:59:39;;;;;;;9.35;5.97;;;;;;;17.91;69.00;94621.38;5096574;28;20200;-68
2022/08/27 05:02:08;;;;;;;11.38;6.55;;;;;;;17.94;68.89;94625.38;5097138;28;20192;-68
2022/08/27 05:04:36;;;;;;;8.93;6.00;;;;;;;17.97;68.22;94621.72;5095415;28;20208;-68
2022/08/27 05:07:03;;;;;;;7.20;5.70;;;;;;;18.01;67.61;94619.69;5097149;28;20181;-68
2022/08/27 05:09:31;;;;;;;9.88;6.70;;;;;;;18.04;67.34;94616.88;5096854;28;20189;-68
2022/08/27 05:11:59;;;;;;;7.60;6.15;;;;;;;18.09;67.40;94626.03;5096984;28;20224;-68
2022/08/27 05:14:28;;;;;;;9.15;6.30;;;;;;;18.11;67.19;94626.41;5097081;28;20185;-68
2022/08/27 05:16:56;;;;;;;7.10;5.63;;;;;;;18.16;66.38;94623.97;5096320;28;20283;-68
2022/08/27 05:19:23;;;;;;;6.15;5.53;;;;;;;18.17;66.10;94628.34;5096169;28;20208;-68
2022/08/27 05:21:51;;;;;;;8.98;5.90;;;;;;;18.20;65.82;94626.72;5095768;28;20192;-68
2022/08/27 05:24:18;;;;;;;9.90;8.85;;;;;;;18.23;66.13;94632.28;5096495;28;20181;-68
2022/08/27 05:26:47;;;;;;;13.77;12.40;;;;;;;18.26;65.69;94631.47;5096377;28;20188;-68
2022/08/27 05:29:14;;;;;;;10.27;7.80;;;;;;;18.28;65.96;94629.03;5096726;28;20195;-68
2022/08/27 05:31:41;;;;;;;11.65;7.18;;;;;;;18.32;66.14;94637.38;5095685;28;20220;-68
2022/08/27 05:34:08;;;;;;;10.15;7.28;;;;;;;18.34;66.08;94634.97;5095604;28;20538;-68
2022/08/27 05:36:36;;;;;;;10.65;7.13;;;;;;;18.38;66.06;94630.13;5096502;28;20185;-68
2022/08/27 05:39:05;;;;;;;9.05;8.13;;;;;;;18.43;65.75;94632.47;5095346;28;20242;-68
2022/08/27 05:41:32;;;;;;;13.20;8.98;;;;;;;18.46;65.42;94634.44;5095585;28;20218;-68
2022/08/27 05:44:05;;;;;;;11.80;8.80;;;;;;;18.48;65.24;94636.81;5095601;28;20212;-68
2022/08/27 05:46:32;;;;;;;11.98;8.93;;;;;;;18.50;65.30;94631.59;5095739;28;20196;-68
2022/08/27 05:49:00;;;;;;;11.35;8.85;;;;;;;18.52;65.77;94630.00;5096546;28;20189;-68
2022/08/27 05:51:29;;;;;;;9.68;8.68;;;;;;;18.56;65.80;94631.97;5096291;28;20228;-68
2022/08/27 05:53:58;;;;;;;13.88;9.40;;;;;;;18.60;65.98;94629.94;5095913;28;20196;-68
2022/08/27 05:56:28;;;;;;;12.70;7.53;;;;;;;18.62;65.39;94639.44;5095842;28;20192;-68
2022/08/27 06:01:46;;;;;;;11.98;8.20;;;;;;;18.66;64.62;94640.19;5095752;28;20168;-68
2022/08/27 06:04:15;;;;;;;11.75;7.50;;;;;;;18.71;64.93;94637.00;5095667;28;20204;-68
2022/08/27 06:06:46;;;;;;;11.93;6.65;;;;;;;18.74;64.36;94635.38;5095608;28;20196;-68
2022/08/27 06:09:16;;;;;;;9.27;7.22;;;;;;;18.76;64.79;94647.72;5095764;28;20176;-68
2022/08/27 06:11:43;;;;;;;8.25;6.57;;;;;;;18.81;64.84;94645.66;5095020;28;20215;-68
2022/08/27 06:14:10;;;;;;;9.35;6.85;;;;;;;18.84;64.60;94644.84;5095075;28;20210;-68
2022/08/27 06:16:38;;;;;;;11.95;7.80;;;;;;;18.88;63.91;94651.16;5094550;28;20700;-68
2022/08/27 06:19:08;;;;;;;10.77;8.05;;;;;;;18.89;63.64;94647.19;5094996;28;20254;-68
2022/08/27 06:21:35;;;;;;;10.93;8.25;;;;;;;18.89;63.88;94642.38;5094831;28;20239;-68
2022/08/27 06:24:02;;;;;;;10.77;9.05;;;;;;;18.91;64.38;94637.16;5094568;28;20196;-68
2022/08/27 06:26:31;;;;;;;11.52;9.00;;;;;;;18.95;64.39;94639.91;5094758;28;20199;-68
2022/08/27 06:29:02;;;;;;;10.32;8.68;;;;;;;19.00;64.33;94648.66;5094890;28;20196;-68
2022/08/27 06:31:30;;;;;;;11.82;8.48;;;;;;;19.05;64.05;94646.59;5095551;28;20200;-68
2022/08/27 06:34:00;;;;;;;8.68;7.35;;;;;;;19.11;63.30;94647.72;5094572;28;20199;-68
2022/08/27 06:36:29;;;;;;;11.30;7.00;;;;;;;19.16;62.51;94652.84;5078118;28;20535;-68
2022/08/27 06:38:58;;;;;;;7.57;6.13;;;;;;;19.17;62.24;94649.66;5095282;28;20253;-68
2022/08/27 06:41:26;;;;;;;9.32;7.03;;;;;;;19.18;62.40;94648.44;5095115;28;20192;-68
2022/08/27 06:43:54;;;;;;;10.15;6.90;;;;;;;19.20;62.13;94651.56;5095773;28;20199;-68
2022/08/27 06:46:28;;;;;;;8.55;6.90;;;;;;;19.22;62.51;94646.38;5095221;28;20196;-68
2022/08/27 06:48:57;;;;;;;8.45;6.03;;;;;;;19.28;62.67;94643.91;5095340;28;20234;-68
2022/08/27 06:51:26;;;;;;;9.32;6.53;;;;;;;19.30;62.11;94635.88;5095190;28;20246;-68
2022/08/27 06:53:55;;;;;;;9.80;6.57;;;;;;;19.36;61.74;94644.63;5094617;28;20188;-68
2022/08/27 06:56:23;;;;;;;11.77;6.93;;;;;;;19.40;61.92;94636.97;5095389;28;20196;-68
2022/08/27 06:58:52;;;;;;;9.27;6.43;;;;;;;19.45;61.91;94634.47;5094624;28;20196;-68
2022/08/27 07:01:21;;;;;;;11.60;6.57;;;;;;;19.50;61.89;94636.03;5094531;28;20623;-68
2022/08/27 07:03:49;;;;;;;9.93;5.63;;;;;;;19.55;61.74;94637.56;5094332;28;20232;-68
2022/08/27 07:06:18;;;;;;;9.77;6.00;;;;;;;19.57;61.63;94646.31;5095081;28;20189;-68
2022/08/27 07:08:45;;;;;;;6.22;5.50;;;;;;;19.62;60.57;94638.28;5094877;28;20302;-68
2022/08/27 07:11:17;;;;;;;7.53;5.15;;;;;;;19.66;61.18;94639.00;5094438;28;20196;-68
2022/08/27 07:13:46;;;;;;;7.03;5.85;;;;;;;19.70;60.57;94628.56;5094203;28;20200;-68
2022/08/27 07:16:18;;;;;;;8.82;5.53;;;;;;;19.76;60.22;94633.69;5094281;28;20204;-68
2022/08/27 07:18:45;;;;;;;10.20;6.10;;;;;;;19.79;59.79;94624.44;5094418;28;20204;-68
2022/08/27 07:21:13;;;;;;;8.30;5.43;;;;;;;19.83;60.37;94633.59;5095189;28;20192;-68
2022/08/27 07:23:40;;;;;;;8.68;5.63;;;;;;;19.86;60.43;94629.91;5094237;28;20219;-68
2022/08/27 07:26:08;;;;;;;11.48;6.47;;;;;;;19.93;59.70;94635.41;5095174;28;20200;-68
2022/08/27 07:28:36;;;;;;;8.82;5.30;;;;;;;19.97;59.33;94630.53;5096579;28;20616;-68
2022/08/27 07:31:05;;;;;;;8.63;5.57;;;;;;;20.01;59.65;94631.28;5098352;28;20200;-68
2022/08/27 07:33:34;;;;;;;11.93;6.70;;;;;;;20.06;59.29;94636.41;5097957;28;20203;-68
2022/08/27 07:36:01;;;;;;;11.35;5.88;;;;;;;20.11;59.59;94644.28;5098866;28;20177;-68
2022/08/27 07:38:29;;;;;;;11.25;6.60;;;;;;;20.18;59.32;94641.38;5098721;28;20196;-68
2022/08/27 07:40:57;;;;;;;8.20;6.43;;;;;;;20.29;60.02;94643.22;5097889;28;20196;-68
2022/08/27 07:46:10;;;;;;;9.27;5.55;;;;;;;20.41;59.27;94637.03;5098267;28;20277;-68
2022/08/27 07:48:37;;;;;;;8.02;5.25;;;;;;;20.47;58.22;94648.50;5098117;28;20204;-68
2022/08/27 07:51:04;;;;;;;7.68;5.90;;;;;;;20.51;58.43;94641.66;5097310;28;20240;-68
2022/08/27 07:53:33;;;;;;;7.65;5.90;;;;;;;20.59;59.23;94651.53;5097707;28;20211;-68
2022/08/27 07:56:04;;;;;;;8.13;6.35;;;;;;;20.71;58.92;94646.53;5098130;28;20185;-68
2022/08/27 07:58:31;;;;;;;8.32;5.47;;;;;;;20.85;59.28;94647.03;5098641;28;20214;-68
2022/08/27 08:00:57;;;;;;;10.95;6.30;;;;;;;20.93;58.85;94644.88;5097704;28;20191;-68
2022/08/27 08:03:26;;;;;;;10.38;5.88;;;;;;;21.08;58.82;94648.97;5098332;28;20216;-68
2022/08/27 08:05:53;;;;;;;14.35;5.60;;;;;;;21.22;58.11;94644.31;5097239;28;20215;-68
2022/08/27 08:08:20;;;;;;;5.80;4.93;;;;;;;21.30;57.48;94637.31;5098134;28;20195;-69
2022/08/27 08:10:48;;;;;;;9.38;6.10;;;;;;;21.35;56.02;94648.88;5098113;28;20180;-69
2022/08/27 08:13:16;;;;;;;8.65;5.25;;;;;;;21.46;56.36;94637.44;5097023;28;20227;-69
2022/08/27 08:15:44;;;;;;;9.52;5.53;;;;;;;21.47;55.11;94638.22;5097090;28;20202;-69
2022/08/27 08:18:14;;;;;;;11.88;5.53;;;;;;;21.50;57.45;94631.75;5097114;28;20203;-68
2022/08/27 08:20:42;;;;;;;7.75;5.63;;;;;;;21.59;56.57;94634.72;5097361;28;20189;-68
2022/08/27 08:23:09;;;;;;;12.50;6.07;;;;;;;21.65;55.53;94641.41;5096649;28;20192;-68
2022/08/27 08:25:36;;;;;;;8.88;5.85;;;;;;;21.71;56.52;94634.03;5097153;28;20204;-68
2022/08/27 08:28:03;;;;;;;10.65;6.20;;;;;;;21.87;56.90;94627.69;5097576;28;20231;-68
2022/08/27 08:30:31;;;;;;;9.07;5.78;;;;;;;22.02;55.26;94631.72;5097970;28;20188;-68
2022/08/27 08:32:58;;;;;;;7.97;5.18;;;;;;;22.20;55.92;94625.69;5097213;28;20228;-68
2022/08/27 08:35:26;;;;;;;8.63;5.65;;;;;;;22.27;54.70;94622.72;5097918;28;20196;-68
2022/08/27 08:37:54;;;;;;;7.18;5.00;;;;;;;22.36;56.01;94622.09;5096794;28;20215;-68
2022/08/27 08:40:32;;;;;;;7.40;5.00;;;;;;;22.43;53.73;94624.72;5096840;28;20203;-68
2022/08/27 08:43:04;;;;;;;8.10;5.20;;;;;;;22.51;53.39;94631.75;5097677;28;20204;-68
2022/08/27 08:45:33;;;;;;;7.93;4.75;;;;;;;22.66;52.91;94628.53;5096512;28;20218;-68
2022/08/27 08:48:05;;;;;;;6.45;4.72;;;;;;;22.83;55.28;94630.88;5097040;28;20599;-68
2022/08/27 08:50:37;;;;;;;7.57;4.85;;;;;;;22.98;54.91;94627.69;5096329;28;20192;-68
2022/08/27 08:53:13;;;;;;;6.82;5.55;;;;;;;23.18;52.56;94622.72;5097695;28;20204;-68
2022/08/27 08:55:44;;;;;;;7.90;4.70;;;;;;;23.33;50.06;94623.09;5097173;28;20229;-68
2022/08/27 08:58:21;;;;;;;8.75;4.40;;;;;;;23.42;52.82;94633.69;5096891;28;20242;-69
2022/08/27 09:00:55;;;;;;;7.60;5.05;;;;;;;23.62;51.20;94619.44;5097656;28;20191;-68
2022/08/27 09:03:24;;;;;;;6.88;4.07;;;;;;;23.76;49.86;94624.66;5096917;28;20220;-68
2022/08/27 09:06:01;;;;;;;6.00;4.55;;;;;;;23.85;48.93;94624.75;5095731;28;20704;-67
2022/08/27 09:08:33;;;;;;;6.43;4.07;;;;;;;23.96;49.52;94615.97;5096222;28;20196;-67
2022/08/27 09:11:06;;;;;;;5.90;4.20;;;;;;;23.97;49.81;94615.53;5096893;28;20197;-68
2022/08/27 09:13:37;;;;;;;7.25;4.28;;;;;;;24.06;45.67;94617.66;5096843;28;20212;-68
2022/08/27 09:16:05;;;;;;;7.97;3.50;;;;;;;24.10;44.72;94614.75;5095928;28;20192;-68
2022/08/27 09:18:34;;;;;;;8.65;3.72;;;;;;;24.12;45.05;94612.28;5096484;28;20189;-68
2022/08/27 09:21:07;;;;;;;5.40;3.78;;;;;;;24.16;45.91;94610.13;5096938;28;20208;-68
2022/08/27 09:23:47;;;;;;;7.60;4.53;;;;;;;24.29;48.54;94610.09;5096139;28;20187;-68
2022/08/27 09:26:20;;;;;;;6.25;4.25;;;;;;;24.40;47.18;94613.38;5095826;28;20597;-68
2022/08/27 09:31:39;;;;;;;7.18;4.10;;;;;;;24.70;44.21;94601.47;5096581;28;20192;-68
2022/08/27 09:34:06;;;;;;;6.97;3.92;;;;;;;24.82;44.41;94601.88;5095666;28;20241;-68
2022/08/27 09:36:33;;;;;;;5.53;4.53;;;;;;;24.91;46.41;94602.75;5095950;28;20208;-68
2022/08/27 09:39:06;;;;;;;5.72;4.00;;;;;;;25.09;44.03;94596.47;5096169;28;20195;-68
2022/08/27 09:41:46;;;;;;;5.82;3.90;;;;;;;25.10;44.06;94600.06;5096370;28;20194;-67
2022/08/27 09:44:14;;;;;;;8.15;4.38;;;;;;;25.21;43.92;94598.44;5096789;28;20204;-68
2022/08/27 09:46:52;;;;;;;4.43;3.80;;;;;;;25.32;43.28;94595.22;5095828;28;20208;-68
2022/08/27 09:49:20;;;;;;;10.60;4.45;;;;;;;25.38;42.67;94599.03;5095917;28;20189;-68
2022/08/27 09:51:48;;;;;;;7.60;4.50;;;;;;;25.47;42.34;94594.69;5095336;28;20236;-68
2022/08/27 09:54:30;;;;;;;7.18;4.05;;;;;;;25.51;43.24;94598.94;5095328;28;20211;-68
2022/08/27 09:56:58;;;;;;;8.20;3.95;;;;;;;25.55;41.50;94593.94;5096237;28;20180;-68
2022/08/27 09:59:26;;;;;;;8.15;4.05;;;;;;;25.60;44.44;94596.19;5096019;28;20184;-68
2022/08/27 10:01:56;;;;;;;7.32;4.10;;;;;;;25.74;41.29;94597.63;5095129;28;20196;-68
2022/08/27 10:04:33;;;;;;;8.88;3.80;;;;;;;25.84;41.24;94596.47;5096185;28;20231;-68
2022/08/27 10:07:17;;;;;;;6.10;3.40;;;;;;;25.87;41.61;94595.53;5095652;28;20192;-68
2022/08/27 10:09:51;;;;;;;6.15;3.78;;;;;;;26.01;39.41;94587.75;5095107;28;20188;-68
2022/08/27 10:12:23;;;;;;;7.22;4.30;;;;;;;26.15;38.82;94584.34;5095256;28;20224;-68
2022/08/27 10:14:53;;;;;;;6.15;3.58;;;;;;;26.25;39.12;94582.31;5095792;28;20180;-68
2022/08/27 10:17:26;;;;;;;7.82;3.72;;;;;;;26.31;38.84;94586.13;5095705;28;20181;-68
2022/08/27 10:20:01;;;;;;;9.63;3.60;;;;;;;26.40;37.09;94578.44;5095665;28;20199;-68
2022/08/27 10:22:38;;;;;;;7.70;3.85;;;;;;;26.42;38.37;94589.28;5095635;28;20180;-68
2022/08/27 10:25:16;;;;;;;9.15;3.92;;;;;;;26.47;38.68;94585.06;5095710;28;20286;-68
2022/08/27 10:27:54;;;;;;;7.93;5.20;;;;;;;26.56;37.64;94580.22;5094488;28;20585;-68
2022/08/27 10:30:24;;;;;;;4.85;4.30;;;;;;;26.71;36.65;94582.44;5095045;28;20196;-68
2022/08/27 10:32:57;;;;;;;9.20;4.07;;;;;;;26.69;36.86;94582.13;5095322;28;20303;-68
2022/08/27 10:35:27;;;;;;;5.25;3.80;;;;;;;26.75;36.80;94588.72;5095296;28;20193;-68
2022/08/27 10:38:04;;;;;;;7.43;4.05;;;;;;;26.82;37.46;94586.38;5094536;28;20324;-68
2022/08/27 10:40:39;;;;;;;10.50;3.80;;;;;;;26.84;36.54;94589.53;5095491;28;20184;-68
2022/08/27 10:43:18;;;;;;;6.47;4.22;;;;;;;26.88;35.40;94593.00;5095620;28;20282;-68
2022/08/27 10:45:50;;;;;;;7.93;3.72;;;;;;;26.88;37.26;94589.38;5094496;28;20196;-68
2022/08/27 10:48:24;;;;;;;6.05;4.50;;;;;;;26.99;37.98;94586.06;5095360;28;20215;-68
2022/08/27 10:50:57;;;;;;;7.13;4.35;;;;;;;27.13;36.41;94593.19;5094231;28;20553;-67
2022/08/27 10:53:36;;;;;;;6.05;3.95;;;;;;;27.16;35.92;94586.56;5094122;28;20735;-68
2022/08/27 10:56:13;;;;;;;6.10;3.83;;;;;;;27.33;35.51;94588.56;5094395;28;20196;-68
2022/08/27 10:58:48;;;;;;;4.45;3.90;;;;;;;27.43;35.81;94585.75;5094677;28;20207;-68
2022/08/27 11:01:22;;;;;;;6.18;4.07;;;;;;;27.42;34.80;94582.13;5095289;28;20210;-68
2022/08/27 11:03:53;;;;;;;5.88;4.32;;;;;;;27.44;36.68;94585.25;5097982;28;20192;-68
2022/08/27 11:06:24;;;;;;;6.70;4.13;;;;;;;27.47;34.26;94584.31;5098895;28;20195;-68
2022/08/27 11:08:55;;;;;;;10.35;4.63;;;;;;;27.54;33.43;94574.72;5098287;28;20236;-68
2022/08/27 11:11:33;;;;;;;4.88;4.10;;;;;;;27.50;33.19;94572.03;5099276;28;20187;-68
2022/08/27 11:14:00;;;;;;;7.65;4.50;;;;;;;27.46;34.90;94581.97;5098087;28;20224;-68
2022/08/27 11:16:33;;;;;;;11.00;4.65;;;;;;;27.58;33.10;94575.31;5099084;28;20188;-68
2022/08/27 11:19:03;;;;;;;5.55;4.00;;;;;;;27.57;31.40;94574.53;5099371;28;20218;-68
2022/08/27 11:21:34;;;;;;;10.40;4.60;;;;;;;27.67;31.68;94566.81;5098342;28;20196;-68
2022/08/27 11:24:14;;;;;;;8.95;4.93;;;;;;;27.70;32.33;94570.72;5098064;28;20572;-68
2022/08/27 11:26:44;;;;;;;8.57;4.72;;;;;;;27.62;33.39;94566.66;5098227;28;20277;-68
2022/08/27 11:29:21;;;;;;;5.32;4.60;;;;;;;27.60;33.80;94562.25;5098962;28;20196;-68
2022/08/27 11:31:54;;;;;;;8.65;5.10;;;;;;;27.67;36.27;94561.16;5098429;28;20265;-68
2022/08/27 11:34:25;;;;;;;5.88;4.63;;;;;;;27.68;32.16;94548.53;5097768;28;20220;-68
2022/08/27 11:37:13;;;;;;;5.47;4.30;;;;;;;27.68;30.94;94556.25;5098538;28;20623;-68
2022/08/27 11:39:51;;;;;;;11.35;4.75;;;;;;;27.73;31.58;94553.53;5098998;28;20193;-68
2022/08/27 11:42:26;;;;;;;6.63;4.60;;;;;;;27.73;32.29;94549.94;5098618;28;20184;-68
2022/08/27 11:44:57;;;;;;;8.77;4.47;;;;;;;27.76;31.73;94541.28;5098586;28;20239;-68
2022/08/27 11:47:25;;;;;;;12.15;5.40;;;;;;;27.87;32.79;94546.44;5097854;28;20197;-68
2022/08/27 11:49:55;;;;;;;6.57;4.63;;;;;;;27.91;30.07;94554.78;5098397;28;20189;-68
2022/08/27 11:52:24;;;;;;;9.05;4.70;;;;;;;28.00;29.80;94549.88;5097352;28;20243;-68
2022/08/27 11:54:55;;;;;;;9.30;5.15;;;;;;;28.00;29.83;94552.69;5098075;28;20200;-68